Time;durP1;ratioP1;P1;durP2;ratioP2;P2;SDS_P1;SDS_P2;PMS_P1;PMS_P2;Temp;Humidity;BMP_temperature;BMP_pressure;BME280_temperature;BME280_humidity;BME280_pressure;Samples;Min_cycle;Max_cycle;Signal;HPM_P1;HPM_P2
2023/06/12 00:00:46;;;;;;;30.70;27.60;;;20.80;99.90;;;;;;5053948;28;20480;-51
2023/06/12 00:03:13;;;;;;;30.45;27.20;;;20.80;99.90;;;;;;5053603;28;20353;-55
2023/06/12 00:05:40;;;;;;;31.20;28.17;;;20.70;99.90;;;;;;5054148;28;20049;-50
2023/06/12 00:08:08;;;;;;;30.55;27.45;;;20.70;99.90;;;;;;5053805;28;20049;-54
2023/06/12 00:10:35;;;;;;;30.65;27.52;;;20.60;99.90;;;;;;5053913;28;20045;-52
2023/06/12 00:13:02;;;;;;;31.25;28.20;;;20.60;99.90;;;;;;5053986;28;20049;-50
2023/06/12 00:15:29;;;;;;;28.95;26.17;;;20.50;99.90;;;;;;5053949;28;20045;-49
2023/06/12 00:17:56;;;;;;;29.23;26.45;;;20.50;99.90;;;;;;5054055;28;20154;-52
2023/06/12 00:20:23;;;;;;;29.23;26.38;;;20.50;99.90;;;;;;5053729;28;20099;-52
2023/06/12 00:22:50;;;;;;;27.58;24.95;;;20.50;99.90;;;;;;5053668;28;20091;-53
2023/06/12 00:25:17;;;;;;;26.63;24.02;;;20.50;99.90;;;;;;5053799;28;20099;-54
2023/06/12 00:27:44;;;;;;;28.33;25.42;;;20.50;99.90;;;;;;5053905;28;20037;-48
2023/06/12 00:30:10;;;;;;;27.85;25.15;;;20.50;99.90;;;;;;5053714;28;20041;-53
2023/06/12 00:32:37;;;;;;;26.45;23.88;;;20.40;99.90;;;;;;5053520;28;20468;-48
2023/06/12 00:35:04;;;;;;;27.60;24.67;;;20.40;99.90;;;;;;5053532;28;20051;-54
2023/06/12 00:37:32;;;;;;;27.95;25.35;;;20.40;99.90;;;;;;5053286;28;20037;-50
2023/06/12 00:39:58;;;;;;;25.60;23.20;;;20.30;99.90;;;;;;5052238;28;20430;-51
2023/06/12 00:42:25;;;;;;;24.60;22.10;;;20.30;99.90;;;;;;5053244;28;20111;-55
2023/06/12 00:44:52;;;;;;;22.90;20.65;;;20.30;99.90;;;;;;5053532;28;20087;-48
2023/06/12 00:47:20;;;;;;;22.52;20.17;;;20.30;99.90;;;;;;5053487;28;20052;-52
2023/06/12 00:49:46;;;;;;;23.63;21.40;;;20.10;99.90;;;;;;5053666;28;20052;-52
2023/06/12 00:52:14;;;;;;;22.65;20.42;;;20.10;99.90;;;;;;5053030;28;20134;-50
2023/06/12 00:54:40;;;;;;;21.85;19.73;;;20.10;99.90;;;;;;5052282;28;20114;-54
2023/06/12 00:57:07;;;;;;;21.08;18.88;;;20.10;99.90;;;;;;5053165;28;20129;-50
2023/06/12 00:59:35;;;;;;;22.80;20.50;;;20.10;99.90;;;;;;5053301;28;20045;-51
2023/06/12 01:02:03;;;;;;;23.65;21.30;;;20.10;99.90;;;;;;5053014;28;20049;-53
2023/06/12 01:04:30;;;;;;;24.65;22.25;;;20.00;99.90;;;;;;5053344;28;20098;-53
2023/06/12 01:06:57;;;;;;;23.00;20.65;;;20.00;99.90;;;;;;5035287;28;20500;-54
2023/06/12 01:09:23;;;;;;;25.10;22.60;;;20.00;99.90;;;;;;5053608;28;20044;-53
2023/06/12 01:11:51;;;;;;;25.17;22.67;;;20.00;99.90;;;;;;5051737;28;20099;-53
2023/06/12 01:14:18;;;;;;;28.70;25.55;;;19.90;99.90;;;;;;5052175;28;20124;-54
2023/06/12 01:16:45;;;;;;;30.85;27.50;;;19.90;99.90;;;;;;5053191;28;20041;-51
2023/06/12 01:19:13;;;;;;;31.35;28.00;;;19.90;99.90;;;;;;5053031;28;20045;-52
2023/06/12 01:21:41;;;;;;;30.48;27.33;;;19.90;99.90;;;;;;5055031;28;20037;-49
2023/06/12 01:24:08;;;;;;;33.45;27.60;;;19.80;99.90;;;;;;5057066;28;20041;-50
2023/06/12 01:26:36;;;;;;;31.88;28.38;;;19.80;99.90;;;;;;5055711;28;20063;-50
2023/06/12 01:29:03;;;;;;;32.03;28.52;;;19.80;99.90;;;;;;5055614;28;20082;-49
2023/06/12 01:31:31;;;;;;;30.98;27.60;;;19.80;99.90;;;;;;5055707;28;20451;-48
2023/06/12 01:34:02;;;;;;;32.90;29.50;;;19.70;99.90;;;;;;5056725;28;20102;-54
2023/06/12 01:36:30;;;;;;;35.88;29.52;;;19.60;99.90;;;;;;5055757;28;20103;-54
2023/06/12 01:38:57;;;;;;;30.80;27.42;;;19.60;99.90;;;;;;5055504;28;20427;-52
2023/06/12 01:41:23;;;;;;;32.22;28.83;;;19.60;99.90;;;;;;5055487;28;20377;-53
2023/06/12 01:43:50;;;;;;;30.92;27.85;;;19.60;99.90;;;;;;5055085;28;20488;-52
2023/06/12 01:46:17;;;;;;;31.35;28.15;;;19.60;99.90;;;;;;5056695;28;20036;-55
2023/06/12 01:48:45;;;;;;;34.53;31.02;;;19.60;99.90;;;;;;5038673;28;20033;-49
2023/06/12 01:51:12;;;;;;;32.40;29.02;;;19.50;99.90;;;;;;5055292;28;20033;-50
2023/06/12 01:53:39;;;;;;;31.77;28.73;;;19.50;99.90;;;;;;5055215;28;20044;-55
2023/06/12 01:56:06;;;;;;;29.75;26.92;;;19.50;99.90;;;;;;5056830;28;20518;-52
2023/06/12 01:58:33;;;;;;;31.02;28.13;;;19.40;99.90;;;;;;5056407;28;20056;-53
2023/06/12 02:01:15;;;;;;;32.92;29.63;;;19.40;99.90;;;;;;5055156;28;20056;-53
2023/06/12 02:03:45;;;;;;;32.35;29.35;;;19.30;99.90;;;;;;5054700;28;20069;-51
2023/06/12 02:06:12;;;;;;;35.78;32.25;;;19.20;99.90;;;;;;5056135;28;20044;-54
2023/06/12 02:08:39;;;;;;;36.90;33.53;;;19.20;99.90;;;;;;5055633;28;20032;-52
2023/06/12 02:11:09;;;;;;;38.67;34.75;;;19.20;99.90;;;;;;5054571;28;20132;-50
2023/06/12 02:13:36;;;;;;;39.17;35.38;;;19.10;99.90;;;;;;5054588;28;20053;-54
2023/06/12 02:16:03;;;;;;;40.97;37.08;;;19.10;99.90;;;;;;5055055;28;20072;-50
2023/06/12 02:18:30;;;;;;;43.15;38.67;;;19.00;99.90;;;;;;5054826;28;20041;-52
2023/06/12 02:20:57;;;;;;;43.92;39.83;;;19.00;99.90;;;;;;5054681;28;20049;-53
2023/06/12 02:23:25;;;;;;;43.22;39.10;;;19.00;99.90;;;;;;5054579;28;20076;-54
2023/06/12 02:25:52;;;;;;;44.88;40.30;;;19.00;99.90;;;;;;5054427;28;20071;-49
2023/06/12 02:28:19;;;;;;;42.72;38.70;;;19.00;99.90;;;;;;5056100;28;20037;-51
2023/06/12 02:30:46;;;;;;;42.35;37.85;;;19.00;99.90;;;;;;5054852;28;20051;-54
2023/06/12 02:33:14;;;;;;;40.70;36.60;;;19.00;99.90;;;;;;5052897;28;20063;-52
2023/06/12 02:35:43;;;;;;;43.47;39.20;;;19.10;99.90;;;;;;5054614;28;20047;-48
2023/06/12 02:38:11;;;;;;;41.92;37.63;;;19.10;99.90;;;;;;5054260;28;20135;-48
2023/06/12 02:40:38;;;;;;;41.90;37.60;;;19.10;99.90;;;;;;5054094;28;20086;-52
2023/06/12 02:43:06;;;;;;;39.45;35.72;;;19.10;99.90;;;;;;5054238;28;20037;-54
2023/06/12 02:45:33;;;;;;;40.85;36.92;;;19.10;99.90;;;;;;5055326;28;20033;-50
2023/06/12 02:48:04;;;;;;;42.13;38.00;;;19.10;99.90;;;;;;5054338;28;20045;-51
2023/06/12 02:50:33;;;;;;;43.17;38.88;;;19.10;99.90;;;;;;5054074;28;20045;-52
2023/06/12 02:53:04;;;;;;;42.70;38.55;;;19.10;99.90;;;;;;5054110;28;20055;-52
2023/06/12 02:55:31;;;;;;;41.40;37.35;;;19.10;99.90;;;;;;5055153;28;20128;-50
2023/06/12 02:57:58;;;;;;;41.42;37.10;;;19.10;99.90;;;;;;5053868;28;20140;-54
2023/06/12 03:00:25;;;;;;;40.90;36.90;;;19.10;99.90;;;;;;5055397;28;20037;-54
2023/06/12 03:02:55;;;;;;;37.20;33.72;;;19.10;99.90;;;;;;5055005;28;20120;-52
2023/06/12 03:05:25;;;;;;;39.85;36.05;;;19.20;99.90;;;;;;5053774;28;20492;-53
2023/06/12 03:07:54;;;;;;;38.45;34.85;;;19.20;99.90;;;;;;5053586;28;20542;-52
2023/06/12 03:10:21;;;;;;;37.72;33.78;;;19.30;99.90;;;;;;5053896;28;20040;-51
2023/06/12 03:12:48;;;;;;;40.40;36.28;;;19.20;99.90;;;;;;5053662;28;20138;-55
2023/06/12 03:15:16;;;;;;;39.80;35.67;;;19.20;99.90;;;;;;5054826;28;20041;-53
2023/06/12 03:17:43;;;;;;;39.58;35.65;;;19.20;99.90;;;;;;5053959;28;20048;-53
2023/06/12 03:20:10;;;;;;;41.45;37.35;;;19.20;99.90;;;;;;5053697;28;20219;-53
2023/06/12 03:22:37;;;;;;;35.83;32.42;;;19.20;99.90;;;;;;5053258;28;20045;-55
2023/06/12 03:25:05;;;;;;;37.33;33.63;;;19.20;99.90;;;;;;5054497;28;20036;-54
2023/06/12 03:27:32;;;;;;;38.15;34.67;;;19.20;99.90;;;;;;5053545;28;20049;-50
2023/06/12 03:29:59;;;;;;;37.75;34.30;;;19.10;99.90;;;;;;5053230;28;20488;-56
2023/06/12 03:32:27;;;;;;;37.20;33.78;;;19.20;99.90;;;;;;5053159;28;20037;-55
2023/06/12 03:34:57;;;;;;;35.20;31.85;;;19.20;99.90;;;;;;5052968;28;20040;-53
2023/06/12 03:37:27;;;;;;;37.13;33.47;;;19.20;99.90;;;;;;5053038;28;20044;-52
2023/06/12 03:39:58;;;;;;;35.72;32.05;;;19.20;99.90;;;;;;5053601;28;20458;-53
2023/06/12 03:42:24;;;;;;;33.97;30.73;;;19.30;99.90;;;;;;5036073;28;20037;-52
2023/06/12 03:44:54;;;;;;;31.30;28.30;;;19.30;99.90;;;;;;5052225;28;20041;-49
2023/06/12 03:47:23;;;;;;;32.45;29.52;;;19.20;99.90;;;;;;5053237;28;20047;-53
2023/06/12 03:49:51;;;;;;;32.83;29.63;;;19.20;99.90;;;;;;5053249;28;20148;-51
2023/06/12 03:52:18;;;;;;;33.75;30.30;;;19.10;99.90;;;;;;5052763;28;20052;-51
2023/06/12 03:54:45;;;;;;;33.58;30.17;;;19.10;99.90;;;;;;5054128;28;20052;-50
2023/06/12 03:57:12;;;;;;;32.72;28.83;;;19.10;99.90;;;;;;5052868;28;20581;-52
2023/06/12 03:59:39;;;;;;;31.33;28.23;;;19.10;99.90;;;;;;5052872;28;20053;-52
2023/06/12 04:02:06;;;;;;;32.97;29.88;;;19.10;99.90;;;;;;5052711;28;20041;-52
2023/06/12 04:04:32;;;;;;;32.78;29.45;;;19.10;99.90;;;;;;5053185;28;20483;-51
2023/06/12 04:06:59;;;;;;;33.65;30.35;;;19.10;99.90;;;;;;5054052;28;20094;-52
2023/06/12 04:09:26;;;;;;;34.72;31.35;;;19.10;99.90;;;;;;5053087;28;20041;-52
2023/06/12 04:11:54;;;;;;;32.08;29.10;;;19.10;99.90;;;;;;5052616;28;20045;-51
2023/06/12 04:14:22;;;;;;;34.38;30.98;;;19.20;99.90;;;;;;5054128;28;20506;-51
2023/06/12 04:16:48;;;;;;;36.17;32.67;;;19.20;99.90;;;;;;5054208;28;20402;-52
2023/06/12 04:19:15;;;;;;;35.10;31.65;;;19.20;99.90;;;;;;5053849;28;20064;-52
2023/06/12 04:21:42;;;;;;;34.40;31.00;;;19.20;99.90;;;;;;5053705;28;20041;-54
2023/06/12 04:24:15;;;;;;;35.17;31.70;;;19.20;99.90;;;;;;5053841;28;20051;-54
2023/06/12 04:26:46;;;;;;;34.15;30.67;;;19.20;99.90;;;;;;5036249;28;20563;-54
2023/06/12 04:29:14;;;;;;;33.60;30.25;;;19.10;99.90;;;;;;5052436;28;20049;-50
2023/06/12 04:31:42;;;;;;;35.08;31.42;;;19.00;99.90;;;;;;5052364;28;20033;-53
2023/06/12 04:34:09;;;;;;;34.65;30.92;;;19.00;99.90;;;;;;5053825;28;20051;-52
2023/06/12 04:36:37;;;;;;;33.53;30.33;;;19.10;99.90;;;;;;5053736;28;20044;-49
2023/06/12 04:39:05;;;;;;;33.17;29.88;;;19.10;99.90;;;;;;5052788;28;20056;-51
2023/06/12 04:41:33;;;;;;;34.90;31.42;;;19.20;99.90;;;;;;5052334;28;20128;-52
2023/06/12 04:44:03;;;;;;;35.67;32.30;;;19.30;99.90;;;;;;5052375;28;20044;-54
2023/06/12 04:46:35;;;;;;;34.38;31.27;;;19.30;99.90;;;;;;5052676;28;20404;-50
2023/06/12 04:49:02;;;;;;;36.55;32.83;;;19.30;99.90;;;;;;5052216;28;20091;-49
2023/06/12 04:51:29;;;;;;;37.55;33.53;;;19.30;99.90;;;;;;5052518;28;20073;-53
2023/06/12 04:53:57;;;;;;;36.83;33.33;;;19.40;99.90;;;;;;5053672;28;20408;-52
2023/06/12 04:56:23;;;;;;;36.95;33.15;;;19.30;99.90;;;;;;5055295;28;20140;-50
2023/06/12 04:58:51;;;;;;;37.22;33.72;;;19.30;99.90;;;;;;5056103;28;20053;-49
2023/06/12 05:01:19;;;;;;;36.15;32.58;;;19.30;99.90;;;;;;5056298;28;20051;-52
2023/06/12 05:03:46;;;;;;;37.53;33.78;;;19.30;99.90;;;;;;5055966;28;20045;-52
2023/06/12 05:06:13;;;;;;;39.10;35.13;;;19.30;99.90;;;;;;5057794;28;20567;-51
2023/06/12 05:08:41;;;;;;;38.17;34.45;;;19.40;99.90;;;;;;5056451;28;20041;-49
2023/06/12 05:11:08;;;;;;;38.13;34.20;;;19.50;99.90;;;;;;5056203;28;20044;-53
2023/06/12 05:13:35;;;;;;;36.05;32.50;;;19.50;99.90;;;;;;5057367;28;20052;-51
2023/06/12 05:16:03;;;;;;;38.17;34.35;;;19.60;99.90;;;;;;5057471;28;20387;-49
2023/06/12 05:18:29;;;;;;;36.55;33.03;;;19.60;99.90;;;;;;5055940;28;20049;-52
2023/06/12 05:20:59;;;;;;;36.60;33.20;;;19.70;99.90;;;;;;5055886;28;20353;-54
2023/06/12 05:23:25;;;;;;;37.33;33.60;;;19.70;99.90;;;;;;5055774;28;20148;-53
2023/06/12 05:25:52;;;;;;;39.25;35.50;;;19.80;99.90;;;;;;5056111;28;20103;-50
2023/06/12 05:28:19;;;;;;;37.67;34.03;;;19.80;99.90;;;;;;5055535;28;20064;-52
2023/06/12 05:30:47;;;;;;;38.28;34.47;;;19.80;99.90;;;;;;5055523;28;20345;-53
2023/06/12 05:33:16;;;;;;;38.28;34.58;;;19.90;99.90;;;;;;5055588;28;20052;-58
2023/06/12 05:35:44;;;;;;;39.40;35.67;;;19.90;99.90;;;;;;5055595;28;20041;-49
2023/06/12 05:38:11;;;;;;;39.47;35.75;;;20.00;99.90;;;;;;5057119;28;20064;-51
2023/06/12 05:40:39;;;;;;;41.35;37.47;;;19.90;99.90;;;;;;5055821;28;20044;-55
2023/06/12 05:43:06;;;;;;;42.65;38.38;;;20.00;99.90;;;;;;5055533;28;20064;-51
2023/06/12 05:45:33;;;;;;;41.15;37.35;;;20.00;99.90;;;;;;5055264;28;20070;-54
2023/06/12 05:48:02;;;;;;;43.80;39.55;;;20.00;99.90;;;;;;5055027;28;20099;-51
2023/06/12 05:50:28;;;;;;;43.10;39.08;;;20.10;99.90;;;;;;5056754;28;20041;-51
2023/06/12 05:52:55;;;;;;;43.65;39.53;;;20.10;99.90;;;;;;5055114;28;20051;-50
2023/06/12 05:55:22;;;;;;;43.30;39.20;;;20.20;99.90;;;;;;5055365;28;20048;-52
2023/06/12 05:57:49;;;;;;;40.92;36.92;;;20.30;99.90;;;;;;5056591;28;20063;-54
2023/06/12 06:00:19;;;;;;;40.28;36.55;;;20.30;99.90;;;;;;5055235;28;20052;-53
2023/06/12 06:02:49;;;;;;;43.72;39.25;;;20.50;99.90;;;;;;5071546;28;20044;-50
2023/06/12 06:05:30;;;;;;;43.38;38.97;;;20.50;99.90;;;;;;5054658;28;20041;-49
2023/06/12 06:08:02;;;;;;;47.55;42.63;;;20.70;99.90;;;;;;5055036;28;20049;-53
2023/06/12 06:10:31;;;;;;;44.42;40.13;;;20.70;99.90;;;;;;5055442;28;20060;-51
2023/06/12 06:12:58;;;;;;;45.00;40.85;;;20.70;99.90;;;;;;5054808;28;20041;-47
2023/06/12 06:15:25;;;;;;;46.22;41.70;;;20.80;99.90;;;;;;5054755;28;20049;-52
2023/06/12 06:17:53;;;;;;;43.00;38.83;;;20.80;99.90;;;;;;5054432;28;20090;-52
2023/06/12 06:20:20;;;;;;;39.45;35.65;;;20.80;99.90;;;;;;5054786;28;20438;-53
2023/06/12 06:22:47;;;;;;;40.55;36.97;;;20.90;99.90;;;;;;5054468;28;20048;-47
2023/06/12 06:25:15;;;;;;;41.90;37.60;;;21.00;99.90;;;;;;5055816;28;20041;-50
2023/06/12 06:27:42;;;;;;;41.28;37.17;;;21.10;99.90;;;;;;5054841;28;20033;-53
2023/06/12 06:30:10;;;;;;;39.55;35.97;;;21.10;99.90;;;;;;5049902;28;20059;-56
2023/06/12 06:32:37;;;;;;;40.65;36.83;;;21.10;99.90;;;;;;5053330;28;20041;-51
2023/06/12 06:35:04;;;;;;;43.33;39.30;;;21.10;99.90;;;;;;5055072;28;20049;-52
2023/06/12 06:37:30;;;;;;;40.75;37.00;;;21.30;99.90;;;;;;5053948;28;20047;-52
2023/06/12 06:39:57;;;;;;;41.25;37.10;;;21.30;99.90;;;;;;5054182;28;20057;-51
2023/06/12 06:42:24;;;;;;;39.85;35.92;;;21.40;99.90;;;;;;5053737;28;20048;-51
2023/06/12 06:45:01;;;;;;;39.50;35.85;;;21.40;99.90;;;;;;5053806;28;20052;-52
2023/06/12 06:47:28;;;;;;;37.88;34.33;;;21.50;99.90;;;;;;5070181;28;20041;-54
2023/06/12 06:49:57;;;;;;;38.65;34.80;;;21.50;99.90;;;;;;5053467;28;20041;-53
2023/06/12 06:52:24;;;;;;;39.67;36.08;;;21.60;99.90;;;;;;5053518;28;20045;-47
2023/06/12 06:54:52;;;;;;;41.47;37.78;;;21.70;99.90;;;;;;5053733;28;20053;-49
2023/06/12 06:57:21;;;;;;;38.58;34.92;;;21.70;99.90;;;;;;5069839;28;20059;-54
2023/06/12 06:59:48;;;;;;;37.70;34.10;;;21.70;99.90;;;;;;5053399;28;20503;-51
2023/06/12 07:02:15;;;;;;;37.55;34.05;;;21.80;99.90;;;;;;5052858;28;20414;-50
2023/06/12 07:04:44;;;;;;;40.05;36.15;;;21.80;99.90;;;;;;5050807;28;20049;-49
2023/06/12 07:07:13;;;;;;;37.38;33.90;;;21.80;99.90;;;;;;5051877;28;20068;-50
2023/06/12 07:09:40;;;;;;;39.00;35.25;;;21.90;99.90;;;;;;5054272;28;20559;-49
2023/06/12 07:12:07;;;;;;;38.15;34.15;;;21.90;99.90;;;;;;5053079;28;20115;-48
2023/06/12 07:14:34;;;;;;;35.97;32.70;;;21.90;99.90;;;;;;5034092;28;20045;-48
2023/06/12 07:17:03;;;;;;;36.10;32.70;;;22.00;99.90;;;;;;5032925;28;20472;-52
2023/06/12 07:19:30;;;;;;;33.13;30.13;;;22.00;99.90;;;;;;5049237;28;20045;-50
2023/06/12 07:21:57;;;;;;;33.53;30.00;;;22.10;99.90;;;;;;5033392;28;20473;-49
2023/06/12 07:24:24;;;;;;;25.70;23.30;;;22.20;99.90;;;;;;5032887;28;20492;-52
2023/06/12 07:26:52;;;;;;;24.20;21.80;;;22.20;99.90;;;;;;5034099;28;20061;-50
2023/06/12 07:29:20;;;;;;;24.17;21.98;;;22.30;99.90;;;;;;5032803;28;20045;-54
2023/06/12 07:31:47;;;;;;;28.92;26.08;;;22.40;99.90;;;;;;5032810;28;20048;-54
2023/06/12 07:34:14;;;;;;;27.50;25.00;;;22.40;99.90;;;;;;5032658;28;20060;-51
2023/06/12 07:36:41;;;;;;;24.52;22.17;;;22.40;99.90;;;;;;5032749;28;20052;-52
2023/06/12 07:39:08;;;;;;;25.52;21.23;;;22.40;99.90;;;;;;5049448;28;20089;-51
2023/06/12 07:41:39;;;;;;;20.58;18.60;;;22.50;99.90;;;;;;5032839;28;20046;-54
2023/06/12 07:44:06;;;;;;;20.75;18.60;;;22.50;99.90;;;;;;5034185;28;20041;-54
2023/06/12 07:46:33;;;;;;;18.70;16.73;;;22.50;99.90;;;;;;5052343;28;20079;-49
2023/06/12 07:49:00;;;;;;;17.40;15.57;;;22.60;99.90;;;;;;5053872;28;20060;-47
2023/06/12 07:51:28;;;;;;;15.68;14.18;;;22.60;99.90;;;;;;5052663;28;20387;-50
2023/06/12 07:53:55;;;;;;;15.63;14.18;;;22.70;99.90;;;;;;5052513;28;20087;-49
2023/06/12 07:56:24;;;;;;;14.63;13.23;;;22.80;99.90;;;;;;5052136;28;20117;-52
2023/06/12 07:58:55;;;;;;;14.90;13.40;;;22.80;99.90;;;;;;5052121;28;20044;-49
2023/06/12 08:01:22;;;;;;;13.13;11.82;;;22.90;99.90;;;;;;5053739;28;20128;-49
2023/06/12 08:03:56;;;;;;;13.75;12.48;;;23.00;99.90;;;;;;5052165;28;20041;-49
2023/06/12 08:06:24;;;;;;;12.95;11.75;;;23.00;99.90;;;;;;5052026;28;20495;-52
2023/06/12 08:08:52;;;;;;;13.18;11.93;;;23.10;99.90;;;;;;5052284;28;20493;-49
2023/06/12 08:11:19;;;;;;;13.00;11.80;;;23.20;99.90;;;;;;5053285;28;20043;-49
2023/06/12 08:13:49;;;;;;;12.65;11.27;;;23.20;99.90;;;;;;5052087;28;20508;-50
2023/06/12 08:16:18;;;;;;;13.23;11.70;;;23.20;99.90;;;;;;5052304;28;20134;-50
2023/06/12 08:18:46;;;;;;;12.63;11.48;;;23.20;99.90;;;;;;5053330;28;20069;-51
2023/06/12 08:21:15;;;;;;;12.45;11.25;;;23.20;99.90;;;;;;5052138;28;20033;-53
2023/06/12 08:23:42;;;;;;;11.80;10.55;;;23.30;99.90;;;;;;5052396;28;20098;-50
2023/06/12 08:26:08;;;;;;;11.85;10.73;;;23.30;99.90;;;;;;5051633;28;20125;-51
2023/06/12 08:28:37;;;;;;;11.13;10.10;;;23.40;99.90;;;;;;5053092;28;20429;-48
2023/06/12 08:31:08;;;;;;;9.57;8.18;;;23.40;99.90;;;;;;5050553;28;20037;-54
2023/06/12 08:33:35;;;;;;;8.27;7.47;;;23.50;99.90;;;;;;5051990;28;20410;-48
2023/06/12 08:36:02;;;;;;;10.10;8.48;;;23.60;99.90;;;;;;5068524;28;20045;-52
2023/06/12 08:38:29;;;;;;;8.77;7.95;;;23.70;99.90;;;;;;5052098;28;20056;-50
2023/06/12 08:40:58;;;;;;;8.10;7.40;;;23.70;99.90;;;;;;5068535;28;20037;-52
2023/06/12 08:43:25;;;;;;;8.82;6.90;;;23.80;99.90;;;;;;5053020;28;20132;-52
2023/06/12 08:45:52;;;;;;;8.23;7.43;;;23.90;99.90;;;;;;5051572;28;20381;-49
2023/06/12 08:48:19;;;;;;;8.50;7.30;;;23.90;99.90;;;;;;5052942;28;20040;-50
2023/06/12 08:50:47;;;;;;;8.43;6.78;;;24.10;99.90;;;;;;5049983;28;20037;-51
2023/06/12 08:53:14;;;;;;;7.57;6.78;;;24.10;99.80;;;;;;5052678;28;20562;-55
2023/06/12 08:55:41;;;;;;;7.35;6.65;;;24.20;99.70;;;;;;5052440;28;20045;-53
2023/06/12 08:58:08;;;;;;;7.20;6.50;;;24.40;99.40;;;;;;5053384;28;20088;-53
2023/06/12 09:00:34;;;;;;;6.88;6.15;;;24.40;99.20;;;;;;5053511;28;20061;-51
2023/06/12 09:03:04;;;;;;;9.43;6.70;;;24.60;98.90;;;;;;5053855;28;20072;-51
2023/06/12 09:05:33;;;;;;;7.20;6.47;;;24.60;99.00;;;;;;5053722;28;20494;-49
2023/06/12 09:08:00;;;;;;;7.25;6.55;;;24.70;98.90;;;;;;5053782;28;20041;-54
2023/06/12 09:10:27;;;;;;;7.72;6.28;;;24.70;98.70;;;;;;5052417;28;20045;-51
2023/06/12 09:12:53;;;;;;;6.80;5.70;;;24.70;98.20;;;;;;5052935;28;20041;-54
2023/06/12 09:15:20;;;;;;;6.15;5.55;;;24.90;98.10;;;;;;5052738;28;20044;-53
2023/06/12 09:17:47;;;;;;;6.65;5.93;;;25.00;98.20;;;;;;5052838;28;20045;-53
2023/06/12 09:20:14;;;;;;;7.00;5.43;;;25.10;97.70;;;;;;5051684;28;20431;-49
2023/06/12 09:22:58;;;;;;;6.30;5.70;;;25.10;97.70;;;;;;5052985;28;20099;-54
2023/06/12 09:25:25;;;;;;;6.63;5.93;;;25.10;97.70;;;;;;5052798;28;20082;-51
2023/06/12 09:27:52;;;;;;;5.90;5.30;;;25.10;97.90;;;;;;5052837;28;20269;-54
2023/06/12 09:30:19;;;;;;;6.70;5.75;;;25.20;97.40;;;;;;5052648;28;20064;-53
2023/06/12 09:32:45;;;;;;;6.15;5.55;;;25.20;97.60;;;;;;5052327;28;20068;-54
2023/06/12 09:35:13;;;;;;;6.85;6.20;;;25.30;97.60;;;;;;5052827;28;20442;-52
2023/06/12 09:37:41;;;;;;;5.82;5.32;;;25.40;97.40;;;;;;5052500;28;20203;-54
2023/06/12 09:40:13;;;;;;;6.72;5.32;;;25.50;97.30;;;;;;5052570;28;20076;-55
2023/06/12 09:42:40;;;;;;;6.65;5.68;;;25.50;96.70;;;;;;5055271;28;20476;-54
2023/06/12 09:45:07;;;;;;;6.53;5.90;;;25.60;96.90;;;;;;5054842;28;20415;-49
2023/06/12 09:47:35;;;;;;;6.15;5.57;;;25.50;96.70;;;;;;5056313;28;20033;-52
2023/06/12 09:50:02;;;;;;;6.68;5.45;;;25.50;97.00;;;;;;5055958;28;20510;-52
2023/06/12 09:52:28;;;;;;;5.35;4.72;;;25.60;96.80;;;;;;5055905;28;20045;-55
2023/06/12 09:54:56;;;;;;;3.72;3.30;;;25.60;96.40;;;;;;5055876;28;20571;-53
2023/06/12 09:57:22;;;;;;;5.18;3.47;;;25.70;94.60;;;;;;5055814;28;20060;-53
2023/06/12 09:59:49;;;;;;;5.63;3.90;;;25.90;94.60;;;;;;5055804;28;20045;-53
2023/06/12 10:02:16;;;;;;;4.45;4.05;;;25.90;94.80;;;;;;5055948;28;20053;-53
2023/06/12 10:04:43;;;;;;;4.35;3.95;;;26.00;94.90;;;;;;5055597;28;20048;-52
2023/06/12 10:07:10;;;;;;;4.07;3.55;;;26.00;95.00;;;;;;5054830;28;20472;-53
2023/06/12 10:09:36;;;;;;;6.03;4.03;;;25.90;95.00;;;;;;5055800;28;20045;-49
2023/06/12 10:12:03;;;;;;;5.07;4.05;;;26.00;95.00;;;;;;5055402;28;20052;-46
2023/06/12 10:14:30;;;;;;;4.57;4.13;;;26.10;95.00;;;;;;5055218;28;20108;-51
2023/06/12 10:16:57;;;;;;;4.43;3.95;;;26.20;94.60;;;;;;5055288;28;20037;-49
2023/06/12 10:19:24;;;;;;;4.30;3.90;;;26.30;95.00;;;;;;5050936;28;20041;-51
2023/06/12 10:21:51;;;;;;;4.13;3.72;;;26.30;94.70;;;;;;5055276;28;20075;-51
2023/06/12 10:24:18;;;;;;;4.68;3.80;;;26.30;94.00;;;;;;5055155;28;20400;-51
2023/06/12 10:26:44;;;;;;;4.28;3.88;;;26.50;93.80;;;;;;5055405;28;20403;-50
2023/06/12 10:29:11;;;;;;;5.07;4.20;;;26.50;94.00;;;;;;5055096;28;20448;-55
2023/06/12 10:31:38;;;;;;;4.43;4.00;;;26.60;94.30;;;;;;5055464;28;20049;-53
2023/06/12 10:34:05;;;;;;;4.80;4.10;;;26.60;94.10;;;;;;5055147;28;20037;-49
2023/06/12 10:36:32;;;;;;;4.78;4.18;;;26.60;94.50;;;;;;5055289;28;20037;-56
2023/06/12 10:38:59;;;;;;;4.55;3.60;;;26.60;94.20;;;;;;5055072;28;20065;-55
2023/06/12 10:41:26;;;;;;;5.07;4.00;;;26.70;94.10;;;;;;5055119;28;20059;-51
2023/06/12 10:43:52;;;;;;;3.95;3.35;;;26.80;94.20;;;;;;5054862;28;20037;-54
2023/06/12 10:46:26;;;;;;;4.95;3.45;;;26.90;93.70;;;;;;5054838;28;20037;-50
2023/06/12 10:48:53;;;;;;;4.80;3.70;;;27.00;93.60;;;;;;5054952;28;20048;-53
2023/06/12 10:51:20;;;;;;;4.68;4.00;;;27.10;93.40;;;;;;5053602;28;20083;-48
2023/06/12 10:53:47;;;;;;;3.97;3.53;;;27.20;93.50;;;;;;5053509;28;20041;-52
2023/06/12 10:56:13;;;;;;;4.72;3.50;;;27.40;93.30;;;;;;5054652;28;20048;-50
2023/06/12 10:58:40;;;;;;;4.25;2.80;;;27.50;92.90;;;;;;5055001;28;20380;-54
2023/06/12 11:01:08;;;;;;;3.50;3.20;;;27.60;92.30;;;;;;5054753;28;20124;-54
2023/06/12 11:03:36;;;;;;;5.18;3.22;;;27.80;92.40;;;;;;5053232;28;20095;-54
2023/06/12 11:06:08;;;;;;;5.25;3.53;;;27.80;92.30;;;;;;5054754;28;20476;-49
2023/06/12 11:08:36;;;;;;;3.88;3.20;;;28.00;91.80;;;;;;5054485;28;20041;-53
2023/06/12 11:11:03;;;;;;;3.97;3.20;;;28.10;91.90;;;;;;5054631;28;20460;-53
2023/06/12 11:13:29;;;;;;;5.43;3.80;;;28.20;91.90;;;;;;5054691;28;20472;-54
2023/06/12 11:15:56;;;;;;;4.15;3.10;;;28.30;91.80;;;;;;5054410;28;20051;-50
2023/06/12 11:18:23;;;;;;;5.85;3.40;;;28.40;91.30;;;;;;5054427;28;20419;-52
2023/06/12 11:20:50;;;;;;;4.00;3.50;;;28.50;91.40;;;;;;5054281;28;20563;-54
2023/06/12 11:23:16;;;;;;;4.93;3.40;;;28.70;91.70;;;;;;5054244;28;20084;-50
2023/06/12 11:25:43;;;;;;;3.97;3.40;;;28.80;91.40;;;;;;5054157;28;20095;-50
2023/06/12 11:28:12;;;;;;;4.07;3.33;;;28.70;91.20;;;;;;5054310;28;20387;-49
2023/06/12 11:30:40;;;;;;;4.68;3.65;;;28.80;91.00;;;;;;5054328;28;20068;-53
2023/06/12 11:33:26;;;;;;;3.90;3.30;;;28.80;90.90;;;;;;5054147;28;20542;-55
2023/06/12 11:35:53;;;;;;;4.28;3.65;;;29.00;91.00;;;;;;5053951;28;20110;-49
2023/06/12 11:38:21;;;;;;;5.68;3.45;;;29.10;90.90;;;;;;5054278;28;20047;-53
2023/06/12 11:40:53;;;;;;;4.38;3.65;;;29.10;90.50;;;;;;5054073;28;20032;-51
2023/06/12 11:43:20;;;;;;;4.65;3.67;;;29.00;91.00;;;;;;5053885;28;20045;-52
2023/06/12 11:45:47;;;;;;;4.45;3.50;;;29.00;90.90;;;;;;5053826;28;20527;-50
2023/06/12 11:48:14;;;;;;;3.90;3.20;;;29.10;90.70;;;;;;5053792;28;20491;-54
2023/06/12 11:50:43;;;;;;;3.53;3.22;;;29.10;91.00;;;;;;5052417;28;20124;-53
2023/06/12 11:53:10;;;;;;;5.00;3.40;;;29.20;90.60;;;;;;5053681;28;20068;-50
2023/06/12 11:55:37;;;;;;;4.10;3.20;;;29.30;90.80;;;;;;5053793;28;20079;-50
2023/06/12 11:58:07;;;;;;;3.50;3.20;;;29.30;90.80;;;;;;5053560;28;20045;-48
2023/06/12 12:00:34;;;;;;;6.78;3.58;;;29.40;90.70;;;;;;5053602;28;20106;-48
2023/06/12 12:03:01;;;;;;;3.65;3.35;;;29.40;90.60;;;;;;5052394;28;20044;-53
2023/06/12 12:05:28;;;;;;;5.50;3.33;;;29.40;91.00;;;;;;5053844;28;20044;-52
2023/06/12 12:07:59;;;;;;;13.50;3.45;;;29.40;91.40;;;;;;5054077;28;20037;-51
2023/06/12 12:10:26;;;;;;;8.85;4.10;;;29.30;91.60;;;;;;5053930;28;20122;-55
2023/06/12 12:12:55;;;;;;;32.42;9.63;;;29.10;94.80;;;;;;5052712;28;20045;-52
2023/06/12 12:15:21;;;;;;;12.60;6.95;;;28.70;96.50;;;;;;5052589;28;20354;-51
2023/06/12 12:17:48;;;;;;;18.35;7.45;;;28.00;98.30;;;;;;5053746;28;20091;-53
2023/06/12 12:20:18;;;;;;;18.55;8.88;;;27.50;99.80;;;;;;5053083;28;20103;-50
2023/06/12 12:22:44;;;;;;;15.18;8.13;;;27.00;99.90;;;;;;5053832;28;20044;-50
2023/06/12 12:25:11;;;;;;;12.18;7.85;;;26.60;99.90;;;;;;5053719;28;20036;-53
2023/06/12 12:27:39;;;;;;;15.38;8.57;;;26.30;99.90;;;;;;5053063;28;20037;-54
2023/06/12 12:30:05;;;;;;;11.00;8.13;;;26.20;99.90;;;;;;5051771;28;20120;-52
2023/06/12 12:32:32;;;;;;;14.43;8.43;;;26.10;99.90;;;;;;5051952;28;20040;-52
2023/06/12 12:34:59;;;;;;;10.90;8.55;;;26.10;99.90;;;;;;5051952;28;20040;-52